CPX667 Details

Departure: Daytona Beach International Airport (KDAB)
Arrival: Miami International Airport (KMIA) at N/A
Route: MYRA V3 MLB V437 PHK V267 BRIKL
Notes:


Current Weather Information
KDAB 230653Z 35006KT 10SM SCT019 BKN035 24/22 A3002 RMK AO2 SLP164 T02390217 $
KMIA 230653Z 00000KT 10SM FEW250 27/23 A2997 RMK AO2 SLP149 T02670228